createdAt,value
2022-12-23T00:00:17.763Z,327.38
2022-12-23T00:00:55.450Z,346.20
2022-12-23T00:01:29.015Z,316.85
2022-12-23T00:02:02.722Z,334.92
2022-12-23T00:02:36.289Z,343.23
2022-12-23T00:03:10.603Z,354.95
2022-12-23T00:03:44.482Z,342.15
2022-12-23T00:04:18.443Z,304.50
2022-12-23T00:04:51.789Z,330.92
2022-12-23T00:05:25.072Z,324.83
2022-12-23T00:05:58.963Z,338.55
2022-12-23T00:06:32.379Z,344.08
2022-12-23T00:07:05.631Z,357.70
2022-12-23T00:07:38.907Z,343.98
2022-12-23T00:08:11.988Z,340.98
2022-12-23T00:08:45.266Z,340.05
2022-12-23T00:09:18.446Z,348.65
2022-12-23T00:09:51.720Z,332.45
2022-12-23T00:10:25.103Z,326.50
2022-12-23T00:10:58.601Z,329.75
2022-12-23T00:11:31.959Z,339.85
2022-12-23T00:12:23.899Z,353.05
2022-12-23T00:13:15.366Z,328.48
2022-12-23T00:14:07.105Z,333.58
2022-12-23T00:14:59.126Z,346.30
2022-12-23T00:15:32.405Z,352.05
2022-12-23T00:16:06.966Z,341.17
2022-12-23T00:16:40.227Z,328.13
2022-12-23T00:17:29.159Z,341.55
2022-12-23T00:18:02.420Z,346.92
2022-12-23T00:18:36.112Z,335.95
2022-12-23T00:19:09.393Z,365.42
2022-12-23T00:19:42.682Z,335.52
2022-12-23T00:20:16.155Z,338.20
2022-12-23T00:20:49.639Z,337.27
2022-12-23T00:21:23.032Z,343.55
2022-12-23T00:21:56.304Z,326.38
2022-12-23T00:22:47.822Z,318.60
2022-12-23T00:23:21.200Z,333.73
2022-12-23T00:23:54.680Z,345.25
2022-12-23T00:24:27.858Z,348.65
2022-12-23T00:25:01.140Z,344.70
2022-12-23T00:25:40.830Z,324.95
2022-12-23T00:26:47.124Z,320.05
2022-12-23T00:27:20.817Z,346.10
2022-12-23T00:28:03.128Z,355.55
2022-12-23T00:28:36.491Z,341.27
2022-12-23T00:29:09.764Z,352.67
2022-12-23T00:29:43.254Z,335.45
2022-12-23T00:30:16.442Z,347.08
2022-12-23T00:30:53.919Z,350.75
2022-12-23T00:31:27.165Z,351.63
2022-12-23T00:32:00.551Z,336.70
2022-12-23T00:32:33.990Z,347.52
2022-12-23T00:33:07.434Z,336.60
2022-12-23T00:33:44.923Z,348.25
2022-12-23T00:34:17.994Z,342.52
2022-12-23T00:34:51.389Z,352.75
2022-12-23T00:35:24.451Z,340.42
2022-12-23T00:35:57.646Z,334.73
2022-12-23T00:36:31.172Z,345.38
2022-12-23T00:37:04.702Z,342.02
2022-12-23T00:37:38.196Z,355.05
2022-12-23T00:38:11.463Z,336.55
2022-12-23T00:39:04.929Z,324.80
2022-12-23T00:40:02.606Z,346.55
2022-12-23T00:40:57.670Z,355.55
2022-12-23T00:41:49.074Z,339.40
2022-12-23T00:42:40.370Z,338.98
2022-12-23T00:43:13.558Z,351.25
2022-12-23T00:43:47.034Z,334.92
2022-12-23T00:44:20.320Z,335.95
2022-12-23T00:44:53.594Z,356.83
2022-12-23T00:45:26.790Z,327.90
2022-12-23T00:46:00.445Z,346.13
2022-12-23T00:46:33.755Z,350.55
2022-12-23T00:47:07.123Z,359.83
2022-12-23T00:47:58.673Z,343.27
2022-12-23T00:48:50.548Z,359.50
2022-12-23T00:49:42.272Z,378.40
2022-12-23T00:50:15.640Z,344.88
2022-12-23T00:50:51.690Z,350.25
2022-12-23T00:51:24.965Z,374.40
2022-12-23T00:51:58.864Z,334.50
2022-12-23T00:52:32.349Z,349.88
2022-12-23T00:53:06.678Z,353.27
2022-12-23T00:53:39.830Z,355.27
2022-12-23T00:54:13.113Z,346.33
2022-12-23T00:54:46.389Z,345.95
2022-12-23T00:55:20.083Z,350.30
2022-12-23T00:55:53.156Z,341.38
2022-12-23T00:56:26.540Z,351.77
2022-12-23T00:57:00.637Z,364.23
2022-12-23T00:57:33.978Z,361.45
2022-12-23T00:58:07.507Z,347.27
2022-12-23T00:58:40.917Z,351.10
2022-12-23T00:59:14.175Z,363.17
2022-12-23T00:59:47.559Z,345.75
2022-12-23T01:00:21.135Z,345.15
2022-12-23T01:01:13.015Z,347.60
2022-12-23T01:02:04.724Z,356.02
2022-12-23T01:02:56.695Z,359.00
2022-12-23T01:03:49.628Z,370.20
2022-12-23T01:04:41.747Z,358.38
2022-12-23T01:05:33.782Z,339.73
2022-12-23T01:06:07.050Z,357.58
2022-12-23T01:06:40.634Z,353.70
2022-12-23T01:07:13.915Z,353.77
2022-12-23T01:07:47.193Z,340.00
2022-12-23T01:08:20.369Z,350.27
2022-12-23T01:08:53.675Z,346.33
2022-12-23T01:09:27.137Z,355.48
2022-12-23T01:10:00.515Z,349.83
2022-12-23T01:10:35.651Z,344.20
2022-12-23T01:11:10.052Z,355.65
2022-12-23T01:11:43.533Z,358.42
2022-12-23T01:12:16.821Z,349.17
2022-12-23T01:12:50.197Z,348.95
2022-12-23T01:13:23.481Z,350.55
2022-12-23T01:13:56.887Z,348.92
2022-12-23T01:14:30.141Z,338.80
2022-12-23T01:15:03.520Z,324.92
2022-12-23T01:15:36.809Z,347.05
2022-12-23T01:16:16.851Z,342.23
2022-12-23T01:16:51.164Z,339.52
2022-12-23T01:17:24.588Z,349.88
2022-12-23T01:17:57.912Z,352.88
2022-12-23T01:18:31.289Z,341.38
2022-12-23T01:19:05.195Z,347.25
2022-12-23T01:19:38.511Z,356.17
2022-12-23T01:20:12.363Z,353.40
2022-12-23T01:20:45.762Z,355.52
2022-12-23T01:21:19.124Z,358.50
2022-12-23T01:21:52.307Z,341.23
2022-12-23T01:22:25.589Z,354.75
2022-12-23T01:22:58.767Z,343.02
2022-12-23T01:23:32.662Z,347.90
2022-12-23T01:24:05.936Z,356.73
2022-12-23T01:24:39.125Z,347.48
2022-12-23T01:25:12.396Z,352.10
2022-12-23T01:25:45.907Z,354.83
2022-12-23T01:26:19.268Z,345.92
2022-12-23T01:26:52.648Z,352.35
2022-12-23T01:27:25.925Z,351.42
2022-12-23T01:27:59.317Z,347.23
2022-12-23T01:28:33.306Z,339.65
2022-12-23T01:29:06.600Z,351.85
2022-12-23T01:29:39.971Z,347.45
2022-12-23T01:30:13.349Z,341.98
2022-12-23T01:30:46.426Z,332.73
2022-12-23T01:31:19.912Z,331.98
2022-12-23T01:31:53.144Z,341.92
2022-12-23T01:32:26.469Z,348.50
2022-12-23T01:32:59.856Z,358.52
2022-12-23T01:33:33.747Z,339.67
2022-12-23T01:34:07.136Z,340.88
2022-12-23T01:34:40.619Z,354.15
2022-12-23T01:35:13.710Z,346.58
2022-12-23T01:35:47.076Z,344.80
2022-12-23T01:36:21.177Z,331.73
2022-12-23T01:36:54.558Z,340.88
2022-12-23T01:37:27.937Z,349.77
2022-12-23T01:38:01.241Z,344.42
2022-12-23T01:38:34.906Z,345.33
2022-12-23T01:39:08.390Z,351.02
2022-12-23T01:39:41.680Z,346.02
2022-12-23T01:40:15.055Z,341.92
2022-12-23T01:40:48.442Z,347.27
2022-12-23T01:41:43.835Z,352.17
2022-12-23T01:42:36.748Z,370.95
2022-12-23T01:43:16.923Z,344.33
2022-12-23T01:43:51.430Z,343.92
2022-12-23T01:44:43.445Z,362.75
2022-12-23T01:45:16.733Z,360.05
2022-12-23T01:45:50.276Z,356.98
2022-12-23T01:46:23.775Z,350.95
2022-12-23T01:46:57.282Z,341.88
2022-12-23T01:47:30.769Z,349.88
2022-12-23T01:48:10.499Z,352.80
2022-12-23T01:48:49.718Z,349.17
2022-12-23T01:49:23.003Z,365.52
2022-12-23T01:50:00.686Z,372.55
2022-12-23T01:50:54.354Z,360.73
2022-12-23T01:51:28.850Z,347.50
2022-12-23T01:52:02.653Z,344.58
2022-12-23T01:52:39.096Z,354.05
2022-12-23T01:53:13.912Z,343.38
2022-12-23T01:53:49.661Z,357.55
2022-12-23T01:54:22.934Z,342.70
2022-12-23T01:54:56.728Z,341.95
2022-12-23T01:55:31.026Z,346.58
2022-12-23T01:56:19.670Z,346.23
2022-12-23T01:56:53.055Z,350.42
2022-12-23T01:57:26.639Z,339.02
2022-12-23T01:58:05.958Z,347.33
2022-12-23T01:58:40.984Z,346.90
2022-12-23T01:59:38.542Z,334.60
2022-12-23T02:00:30.348Z,349.00
2022-12-23T02:01:22.006Z,374.70
2022-12-23T02:02:14.210Z,347.33
2022-12-23T02:03:07.418Z,351.58
2022-12-23T02:03:43.448Z,331.08
2022-12-23T02:04:19.107Z,346.67
2022-12-23T02:04:52.803Z,350.42
2022-12-23T02:05:25.982Z,348.27
2022-12-23T02:06:18.915Z,350.40
2022-12-23T02:07:11.626Z,354.50
2022-12-23T02:08:03.671Z,361.20
2022-12-23T02:08:55.284Z,351.25
2022-12-23T02:09:30.005Z,356.15
2022-12-23T02:10:03.788Z,348.88
2022-12-23T02:10:45.265Z,367.88
2022-12-23T02:11:28.574Z,355.00
2022-12-23T02:12:01.758Z,362.13
2022-12-23T02:12:54.999Z,352.90
2022-12-23T02:13:37.398Z,356.15
2022-12-23T02:14:29.114Z,349.52
2022-12-23T02:15:40.068Z,369.95
2022-12-23T02:16:17.800Z,405.85
2022-12-23T02:16:54.233Z,363.33
2022-12-23T02:17:45.633Z,375.08
2022-12-23T02:18:18.800Z,356.73
2022-12-23T02:19:10.302Z,357.88
2022-12-23T02:20:01.740Z,367.65
2022-12-23T02:20:53.415Z,369.02
2022-12-23T02:21:32.225Z,353.38
2022-12-23T02:22:13.912Z,355.40
2022-12-23T02:22:59.179Z,377.20
2022-12-23T02:23:47.400Z,395.42
2022-12-23T02:24:55.810Z,380.63
2022-12-23T02:25:37.374Z,375.17
2022-12-23T02:26:10.554Z,382.50
2022-12-23T02:27:12.926Z,372.15
2022-12-23T02:27:49.062Z,373.17
2022-12-23T02:28:41.183Z,381.70
2022-12-23T02:29:20.304Z,393.50
2022-12-23T02:30:12.013Z,418.45
2022-12-23T02:30:49.397Z,385.80
2022-12-23T02:31:25.799Z,380.13
2022-12-23T02:32:01.174Z,392.42
2022-12-23T02:32:44.080Z,394.73
2022-12-23T02:33:31.517Z,406.88
2022-12-23T02:34:23.098Z,401.50
2022-12-23T02:35:08.868Z,418.88
2022-12-23T02:35:42.051Z,394.85
2022-12-23T02:36:22.608Z,391.73
2022-12-23T02:36:55.878Z,420.33
2022-12-23T02:37:44.414Z,414.95
2022-12-23T02:38:20.258Z,407.27
2022-12-23T02:39:22.518Z,410.60
2022-12-23T02:39:58.671Z,373.58
2022-12-23T02:40:34.820Z,369.50
2022-12-23T02:41:11.072Z,380.55
2022-12-23T02:41:52.538Z,403.63
2022-12-23T02:42:25.923Z,370.15
2022-12-23T02:42:58.895Z,382.75
2022-12-23T02:43:38.421Z,383.08
2022-12-23T02:44:21.939Z,374.92
2022-12-23T02:45:00.644Z,372.02
2022-12-23T02:45:36.689Z,375.02
2022-12-23T02:46:13.104Z,374.38
2022-12-23T02:46:47.960Z,379.10
2022-12-23T02:47:23.796Z,369.70
2022-12-23T02:47:58.721Z,371.33
2022-12-23T02:48:32.095Z,373.70
2022-12-23T02:49:05.484Z,374.60
2022-12-23T02:49:43.886Z,382.95
2022-12-23T02:50:22.383Z,354.40
2022-12-23T02:50:57.204Z,408.38
2022-12-23T02:51:33.870Z,358.50
2022-12-23T02:52:11.418Z,391.38
2022-12-23T02:52:47.015Z,361.92
2022-12-23T02:53:23.681Z,347.15
2022-12-23T02:53:58.653Z,356.58
2022-12-23T02:54:33.267Z,354.13
2022-12-23T02:55:09.317Z,348.85
2022-12-23T02:55:44.647Z,357.00
2022-12-23T02:56:18.845Z,348.85
2022-12-23T02:56:53.450Z,346.75
2022-12-23T02:57:29.597Z,342.58
2022-12-23T02:58:05.448Z,359.35
2022-12-23T02:58:41.996Z,347.80
2022-12-23T02:59:17.440Z,357.15
2022-12-23T02:59:51.630Z,350.63
2022-12-23T03:00:25.118Z,352.60
2022-12-23T03:01:00.652Z,338.95
2022-12-23T03:01:34.307Z,359.88
2022-12-23T03:02:07.913Z,352.98
2022-12-23T03:02:42.748Z,354.75
2022-12-23T03:03:17.693Z,358.10
2022-12-23T03:03:51.717Z,359.77
2022-12-23T03:04:24.834Z,359.05
2022-12-23T03:05:00.832Z,353.20
2022-12-23T03:05:39.583Z,362.25
2022-12-23T03:06:23.520Z,356.23
2022-12-23T03:07:02.965Z,365.13
2022-12-23T03:07:42.260Z,387.10
2022-12-23T03:08:17.489Z,361.55
2022-12-23T03:08:53.125Z,393.88
2022-12-23T03:09:33.682Z,354.05
2022-12-23T03:10:10.024Z,374.27
2022-12-23T03:10:43.204Z,370.75
2022-12-23T03:11:17.623Z,370.35
2022-12-23T03:11:56.931Z,405.85
2022-12-23T03:12:30.213Z,398.52
2022-12-23T03:13:12.299Z,395.67
2022-12-23T03:13:45.370Z,433.92
2022-12-23T03:14:18.658Z,393.65
2022-12-23T03:15:07.093Z,398.92
2022-12-23T03:15:56.127Z,387.83
2022-12-23T03:16:41.298Z,401.88
2022-12-23T03:17:21.750Z,408.63
2022-12-23T03:18:20.522Z,354.83
2022-12-23T03:18:56.570Z,384.35
2022-12-23T03:19:38.764Z,376.17
2022-12-23T03:20:21.667Z,410.17
2022-12-23T03:20:57.611Z,355.90
2022-12-23T03:21:34.988Z,375.75
2022-12-23T03:22:20.344Z,378.40
2022-12-23T03:22:59.466Z,381.95
2022-12-23T03:23:39.501Z,380.25
2022-12-23T03:24:50.772Z,370.52
2022-12-23T03:25:36.240Z,350.85
2022-12-23T03:26:17.609Z,356.75
2022-12-23T03:26:55.801Z,364.90
2022-12-23T03:27:51.825Z,358.45
2022-12-23T03:28:27.868Z,359.50
2022-12-23T03:29:04.731Z,359.10
2022-12-23T03:29:44.871Z,357.63
2022-12-23T03:30:19.480Z,364.20
2022-12-23T03:30:54.691Z,361.50
2022-12-23T03:31:30.264Z,358.25
2022-12-23T03:32:04.745Z,352.75
2022-12-23T03:32:41.920Z,353.92
2022-12-23T03:33:17.348Z,355.70
2022-12-23T03:33:54.543Z,362.85
2022-12-23T03:34:30.682Z,357.83
2022-12-23T03:35:06.619Z,359.05
2022-12-23T03:36:08.975Z,355.77
2022-12-23T03:36:48.094Z,362.88
2022-12-23T03:37:22.305Z,350.35
2022-12-23T03:37:56.901Z,350.90
2022-12-23T03:38:32.843Z,347.95
2022-12-23T03:39:07.622Z,346.58
2022-12-23T03:39:47.594Z,344.75
2022-12-23T03:40:25.589Z,344.60
2022-12-23T03:41:01.432Z,350.83
2022-12-23T03:41:36.958Z,351.52
2022-12-23T03:42:18.747Z,348.15
2022-12-23T03:42:56.017Z,364.75
2022-12-23T03:43:48.392Z,358.38
2022-12-23T03:45:03.623Z,355.83
2022-12-23T03:45:43.952Z,342.23
2022-12-23T03:46:19.910Z,363.88
2022-12-23T03:46:55.896Z,345.75
2022-12-23T03:47:32.401Z,336.35
2022-12-23T03:48:09.973Z,342.52
2022-12-23T03:48:49.501Z,355.02
2022-12-23T03:49:29.747Z,355.98
2022-12-23T03:50:08.449Z,364.52
2022-12-23T03:50:43.386Z,353.58
2022-12-23T03:51:19.013Z,353.83
2022-12-23T03:52:01.908Z,351.33
2022-12-23T03:52:39.195Z,351.58
2022-12-23T03:53:28.232Z,341.92
2022-12-23T03:54:04.481Z,348.67
2022-12-23T03:54:40.428Z,349.52
2022-12-23T03:55:18.005Z,342.83
2022-12-23T03:55:54.972Z,348.02
2022-12-23T03:56:40.240Z,360.23
2022-12-23T03:57:14.541Z,348.90
2022-12-23T03:58:06.152Z,350.42
2022-12-23T03:59:05.234Z,349.27
2022-12-23T03:59:51.107Z,342.98
2022-12-23T04:00:24.494Z,347.77
2022-12-23T04:01:06.001Z,358.25
2022-12-23T04:01:44.462Z,341.98
2022-12-23T04:02:53.453Z,350.10
2022-12-23T04:03:34.016Z,336.46
2022-12-23T04:04:11.674Z,342.65
2022-12-23T04:04:54.115Z,336.77
2022-12-23T04:05:28.635Z,340.48
2022-12-23T04:06:03.030Z,349.05
2022-12-23T04:06:59.253Z,343.92
2022-12-23T04:07:37.953Z,338.70
2022-12-23T04:08:16.662Z,349.42
2022-12-23T04:08:50.461Z,344.83
2022-12-23T04:09:25.372Z,350.23
2022-12-23T04:09:59.372Z,345.23
2022-12-23T04:10:32.760Z,339.15
2022-12-23T04:11:06.133Z,354.25
2022-12-23T04:11:39.415Z,342.02
2022-12-23T04:12:14.536Z,344.05
2022-12-23T04:12:48.436Z,342.33
2022-12-23T04:13:21.710Z,353.25
2022-12-23T04:13:55.113Z,346.52
2022-12-23T04:14:28.395Z,357.25
2022-12-23T04:15:04.820Z,345.20
2022-12-23T04:15:41.831Z,339.17
2022-12-23T04:16:15.450Z,355.63
2022-12-23T04:16:49.795Z,345.65
2022-12-23T04:17:23.277Z,342.33
2022-12-23T04:17:57.997Z,364.70
2022-12-23T04:18:31.485Z,347.40
2022-12-23T04:19:04.858Z,348.25
2022-12-23T04:19:38.041Z,358.75
2022-12-23T04:20:11.531Z,372.95
2022-12-23T04:20:45.110Z,341.00
2022-12-23T04:21:18.488Z,337.65
2022-12-23T04:21:51.780Z,345.33
2022-12-23T04:22:25.150Z,334.73
2022-12-23T04:22:58.532Z,351.55
2022-12-23T04:23:31.713Z,331.80
2022-12-23T04:24:05.015Z,351.70
2022-12-23T04:24:38.680Z,357.50
2022-12-23T04:25:12.985Z,330.48
2022-12-23T04:25:46.375Z,342.70
2022-12-23T04:26:19.549Z,337.63
2022-12-23T04:26:52.827Z,348.20
2022-12-23T04:27:26.109Z,350.98
2022-12-23T04:27:59.314Z,367.27
2022-12-23T04:28:32.565Z,343.50
2022-12-23T04:29:05.951Z,335.33
2022-12-23T04:29:39.235Z,345.25
2022-12-23T04:30:14.454Z,339.80
2022-12-23T04:30:47.737Z,340.00
2022-12-23T04:31:20.977Z,345.45
2022-12-23T04:31:54.411Z,346.05
2022-12-23T04:32:27.879Z,342.00
2022-12-23T04:33:01.264Z,338.13
2022-12-23T04:33:34.440Z,343.13
2022-12-23T04:34:07.785Z,342.38
2022-12-23T04:34:41.106Z,343.55
2022-12-23T04:35:14.899Z,332.15
2022-12-23T04:35:48.185Z,339.63
2022-12-23T04:36:21.460Z,340.23
2022-12-23T04:36:54.841Z,346.50
2022-12-23T04:37:28.224Z,341.50
2022-12-23T04:38:01.607Z,342.77
2022-12-23T04:38:34.890Z,337.75
2022-12-23T04:39:08.477Z,360.65
2022-12-23T04:39:41.955Z,347.40
2022-12-23T04:40:15.252Z,339.27
2022-12-23T04:40:49.140Z,347.50
2022-12-23T04:41:22.312Z,336.60
2022-12-23T04:41:55.703Z,349.05
2022-12-23T04:42:29.178Z,343.35
2022-12-23T04:43:02.570Z,336.95
2022-12-23T04:43:35.640Z,333.90
2022-12-23T04:44:09.120Z,329.52
2022-12-23T04:44:42.314Z,363.58
2022-12-23T04:45:15.686Z,344.35
2022-12-23T04:45:52.353Z,359.33
2022-12-23T04:46:25.565Z,353.73
2022-12-23T04:46:58.893Z,381.48
2022-12-23T04:47:32.086Z,362.20
2022-12-23T04:48:05.562Z,356.05
2022-12-23T04:48:38.849Z,369.20
2022-12-23T04:49:12.122Z,352.17
2022-12-23T04:49:45.614Z,367.58
2022-12-23T04:50:19.109Z,429.88
2022-12-23T04:50:52.274Z,379.50
2022-12-23T04:51:25.654Z,345.10
2022-12-23T04:51:59.243Z,375.85
2022-12-23T04:52:32.631Z,370.65
2022-12-23T04:53:05.802Z,365.83
2022-12-23T04:53:39.707Z,354.20
2022-12-23T04:54:12.981Z,352.40
2022-12-23T04:54:46.706Z,337.75
2022-12-23T04:55:20.162Z,344.05
2022-12-23T04:55:53.333Z,349.95
2022-12-23T04:56:26.606Z,353.23
2022-12-23T04:57:00.399Z,351.30
2022-12-23T04:57:33.783Z,348.15
2022-12-23T04:58:07.268Z,342.33
2022-12-23T04:58:40.547Z,364.65
2022-12-23T04:59:13.929Z,361.33
2022-12-23T04:59:47.313Z,355.88
2022-12-23T05:00:20.852Z,369.08
2022-12-23T05:01:14.361Z,336.90
2022-12-23T05:01:48.019Z,342.25
2022-12-23T05:02:21.448Z,360.67
2022-12-23T05:02:55.327Z,343.95
2022-12-23T05:03:28.770Z,342.05
2022-12-23T05:04:02.090Z,349.42
2022-12-23T05:04:35.626Z,348.33
2022-12-23T05:05:09.220Z,347.40
2022-12-23T05:05:45.515Z,341.52
2022-12-23T05:06:18.899Z,347.00
2022-12-23T05:06:52.075Z,342.15
2022-12-23T05:07:25.662Z,344.45
2022-12-23T05:08:05.595Z,337.48
2022-12-23T05:08:38.810Z,340.83
2022-12-23T05:09:12.265Z,336.33
2022-12-23T05:09:45.640Z,353.40
2022-12-23T05:10:19.023Z,356.40
2022-12-23T05:10:52.104Z,335.85
2022-12-23T05:11:25.382Z,353.92
2022-12-23T05:11:58.559Z,337.20
2022-12-23T05:12:32.049Z,348.20
2022-12-23T05:13:05.426Z,389.42
2022-12-23T05:13:38.711Z,340.42
2022-12-23T05:14:12.188Z,342.67
2022-12-23T05:14:45.585Z,348.83
2022-12-23T05:15:18.758Z,336.63
2022-12-23T05:15:53.015Z,373.00
2022-12-23T05:16:26.587Z,340.58
2022-12-23T05:17:06.966Z,354.05
2022-12-23T05:17:41.011Z,362.63
2022-12-23T05:18:14.263Z,354.27
2022-12-23T05:18:47.645Z,352.30
2022-12-23T05:19:21.135Z,351.70
2022-12-23T05:19:54.513Z,351.80
2022-12-23T05:20:27.692Z,340.55
2022-12-23T05:21:01.003Z,357.70
2022-12-23T05:21:34.563Z,348.67
2022-12-23T05:22:08.057Z,338.15
2022-12-23T05:22:41.226Z,355.30
2022-12-23T05:23:14.535Z,343.63
2022-12-23T05:23:47.888Z,339.38
2022-12-23T05:24:21.275Z,346.00
2022-12-23T05:24:54.549Z,339.80
2022-12-23T05:25:27.831Z,341.30
2022-12-23T05:26:01.213Z,338.85
2022-12-23T05:26:34.518Z,338.85
2022-12-23T05:27:07.873Z,339.77
2022-12-23T05:27:41.257Z,331.83
2022-12-23T05:28:14.537Z,341.25
2022-12-23T05:28:47.923Z,339.63
2022-12-23T05:29:21.299Z,342.20
2022-12-23T05:29:54.592Z,345.40
2022-12-23T05:30:27.969Z,351.33
2022-12-23T05:31:02.481Z,411.95
2022-12-23T05:31:35.988Z,411.92
2022-12-23T05:32:09.449Z,376.10
2022-12-23T05:32:42.622Z,364.92
2022-12-23T05:33:16.350Z,388.10
2022-12-23T05:33:50.026Z,394.50
2022-12-23T05:34:23.291Z,370.30
2022-12-23T05:34:56.772Z,376.65
2022-12-23T05:35:30.258Z,380.00
2022-12-23T05:36:03.771Z,374.88
2022-12-23T05:36:37.226Z,376.65
2022-12-23T05:37:10.604Z,376.25
2022-12-23T05:37:43.997Z,369.20
2022-12-23T05:38:17.268Z,380.33
2022-12-23T05:38:50.445Z,387.67
2022-12-23T05:39:23.827Z,354.40
2022-12-23T05:39:57.309Z,353.77
2022-12-23T05:40:31.855Z,358.55
2022-12-23T05:41:06.535Z,348.50
2022-12-23T05:41:39.936Z,341.90
2022-12-23T05:42:13.401Z,355.42
2022-12-23T05:42:46.990Z,357.92
2022-12-23T05:43:20.164Z,345.77
2022-12-23T05:43:53.447Z,352.27
2022-12-23T05:44:26.624Z,355.25
2022-12-23T05:45:00.115Z,346.88
2022-12-23T05:45:36.002Z,345.17
2022-12-23T05:46:09.485Z,344.38
2022-12-23T05:46:43.020Z,353.58
2022-12-23T05:47:16.407Z,344.02
2022-12-23T05:47:49.886Z,342.90
2022-12-23T05:48:23.372Z,349.65
2022-12-23T05:48:56.857Z,344.17
2022-12-23T05:49:30.346Z,358.00
2022-12-23T05:50:04.035Z,339.25
2022-12-23T05:50:38.151Z,339.70
2022-12-23T05:51:11.412Z,353.88
2022-12-23T05:51:44.693Z,345.08
2022-12-23T05:52:17.875Z,345.90
2022-12-23T05:52:51.051Z,339.13
2022-12-23T05:53:25.261Z,350.77
2022-12-23T05:53:58.648Z,352.92
2022-12-23T05:54:32.019Z,338.33
2022-12-23T05:55:05.813Z,347.90
2022-12-23T05:55:38.886Z,363.20
2022-12-23T05:56:12.471Z,347.15
2022-12-23T05:56:45.750Z,350.58
2022-12-23T05:57:19.132Z,339.50
2022-12-23T05:57:53.026Z,343.92
2022-12-23T05:58:28.460Z,349.33
2022-12-23T05:59:02.067Z,385.67
2022-12-23T05:59:35.230Z,359.08
2022-12-23T06:00:08.815Z,348.02
2022-12-23T06:00:45.511Z,366.00
2022-12-23T06:01:18.864Z,350.35
2022-12-23T06:01:52.211Z,351.75
2022-12-23T06:02:25.873Z,363.50
2022-12-23T06:02:59.363Z,375.42
2022-12-23T06:03:33.120Z,352.75
2022-12-23T06:04:06.616Z,356.52
2022-12-23T06:04:39.867Z,351.27
2022-12-23T06:05:13.607Z,364.08
2022-12-23T06:05:50.638Z,359.40
2022-12-23T06:06:24.010Z,348.98
2022-12-23T06:06:57.592Z,340.63
2022-12-23T06:07:30.791Z,347.15
2022-12-23T06:08:04.263Z,345.58
2022-12-23T06:08:37.843Z,339.88
2022-12-23T06:09:11.331Z,343.30
2022-12-23T06:09:44.661Z,335.33
2022-12-23T06:10:18.221Z,342.08
2022-12-23T06:10:51.580Z,347.75
2022-12-23T06:11:24.757Z,335.80
2022-12-23T06:11:58.151Z,348.20
2022-12-23T06:12:31.323Z,358.25
2022-12-23T06:13:04.711Z,347.55
2022-12-23T06:13:38.081Z,337.40
2022-12-23T06:14:11.469Z,336.58
2022-12-23T06:14:44.647Z,346.10
2022-12-23T06:15:17.995Z,346.00
2022-12-23T06:15:51.305Z,347.50
2022-12-23T06:16:24.834Z,334.60
2022-12-23T06:16:58.317Z,345.13
2022-12-23T06:17:31.560Z,340.73
2022-12-23T06:18:05.043Z,343.85
2022-12-23T06:18:38.424Z,346.73
2022-12-23T06:19:11.701Z,344.75
2022-12-23T06:19:44.888Z,332.75
2022-12-23T06:20:20.816Z,328.95
2022-12-23T06:20:54.414Z,335.60
2022-12-23T06:21:27.797Z,328.38
2022-12-23T06:22:01.197Z,335.52
2022-12-23T06:22:34.463Z,327.58
2022-12-23T06:23:07.747Z,338.23
2022-12-23T06:23:40.827Z,338.60
2022-12-23T06:24:14.099Z,335.67
2022-12-23T06:24:47.375Z,328.00
2022-12-23T06:25:20.961Z,331.10
2022-12-23T06:26:00.896Z,326.88
2022-12-23T06:26:36.437Z,334.60
2022-12-23T06:27:09.814Z,313.33
2022-12-23T06:27:43.300Z,331.05
2022-12-23T06:28:16.985Z,333.17
2022-12-23T06:28:50.366Z,323.95
2022-12-23T06:29:23.769Z,329.67
2022-12-23T06:29:57.140Z,332.05
2022-12-23T06:30:30.421Z,329.02
2022-12-23T06:31:03.814Z,330.75
2022-12-23T06:31:37.109Z,315.52
2022-12-23T06:32:10.688Z,316.35
2022-12-23T06:32:43.951Z,320.77
2022-12-23T06:33:17.228Z,331.23
2022-12-23T06:33:50.511Z,320.08
2022-12-23T06:34:23.788Z,323.05
2022-12-23T06:34:57.270Z,331.00
2022-12-23T06:35:30.345Z,335.95
2022-12-23T06:36:03.734Z,322.42
2022-12-23T06:36:36.812Z,332.70
2022-12-23T06:37:10.082Z,324.67
2022-12-23T06:37:43.174Z,335.30
2022-12-23T06:38:16.543Z,335.15
2022-12-23T06:38:49.925Z,318.15
2022-12-23T06:39:23.207Z,334.75
2022-12-23T06:39:56.494Z,327.42
2022-12-23T06:40:30.479Z,329.23
2022-12-23T06:41:03.963Z,335.90
2022-12-23T06:41:37.256Z,329.27
2022-12-23T06:42:10.428Z,326.80
2022-12-23T06:42:43.912Z,328.83
2022-12-23T06:43:17.498Z,320.45
2022-12-23T06:43:54.263Z,327.92
2022-12-23T06:44:27.978Z,324.70
2022-12-23T06:45:01.531Z,329.42
2022-12-23T06:45:34.739Z,326.42
2022-12-23T06:46:08.105Z,329.45
2022-12-23T06:46:41.502Z,327.35
2022-12-23T06:47:14.861Z,329.65
2022-12-23T06:47:48.252Z,325.02
2022-12-23T06:48:21.429Z,323.40
2022-12-23T06:48:54.704Z,340.27
2022-12-23T06:49:28.085Z,325.15
2022-12-23T06:50:01.371Z,329.55
2022-12-23T06:50:34.865Z,329.85
2022-12-23T06:51:08.233Z,329.05
2022-12-23T06:51:41.511Z,319.23
2022-12-23T06:52:14.794Z,321.42
2022-12-23T06:52:49.508Z,319.73
2022-12-23T06:53:22.687Z,324.17
2022-12-23T06:53:55.864Z,312.48
2022-12-23T06:54:29.139Z,321.48
2022-12-23T06:55:02.336Z,338.52
2022-12-23T06:55:36.054Z,324.25
2022-12-23T06:56:09.289Z,329.27
2022-12-23T06:56:42.581Z,334.77
2022-12-23T06:57:15.847Z,318.27
2022-12-23T06:57:49.130Z,326.48
2022-12-23T06:58:22.407Z,330.48
2022-12-23T06:58:55.795Z,330.20
2022-12-23T06:59:29.685Z,328.85
2022-12-23T07:00:03.697Z,336.80
2022-12-23T07:00:36.875Z,326.27
2022-12-23T07:01:10.427Z,312.90
2022-12-23T07:01:43.935Z,319.90
2022-12-23T07:02:17.631Z,332.55
2022-12-23T07:02:51.225Z,334.83
2022-12-23T07:03:24.748Z,333.00
2022-12-23T07:03:58.195Z,341.77
2022-12-23T07:04:31.571Z,338.55
2022-12-23T07:05:04.953Z,337.52
2022-12-23T07:05:38.230Z,345.20
2022-12-23T07:06:11.611Z,334.08
2022-12-23T07:06:44.892Z,339.45
2022-12-23T07:07:18.173Z,337.92
2022-12-23T07:07:51.360Z,332.55
2022-12-23T07:08:24.625Z,334.08
2022-12-23T07:08:58.423Z,323.70
2022-12-23T07:09:32.109Z,321.83
2022-12-23T07:10:05.506Z,320.98
2022-12-23T07:10:38.773Z,322.48
2022-12-23T07:11:11.947Z,314.33
2022-12-23T07:11:45.131Z,339.25
2022-12-23T07:12:18.517Z,355.67
2022-12-23T07:12:51.586Z,347.67
2022-12-23T07:13:25.083Z,339.73
2022-12-23T07:13:58.464Z,347.35
2022-12-23T07:14:31.841Z,342.35
2022-12-23T07:15:06.046Z,350.40
2022-12-23T07:15:39.827Z,348.90
2022-12-23T07:16:13.062Z,339.13
2022-12-23T07:16:46.960Z,318.48
2022-12-23T07:17:20.288Z,337.40
2022-12-23T07:17:54.807Z,338.25
2022-12-23T07:18:28.074Z,337.23
2022-12-23T07:19:01.252Z,343.17
2022-12-23T07:19:34.740Z,335.20
2022-12-23T07:20:08.337Z,336.27
2022-12-23T07:20:41.606Z,337.85
2022-12-23T07:21:24.640Z,330.30
2022-12-23T07:22:02.297Z,337.80
2022-12-23T07:22:35.689Z,336.25
2022-12-23T07:23:09.980Z,330.83
2022-12-23T07:23:43.056Z,330.38
2022-12-23T07:24:16.446Z,336.27
2022-12-23T07:24:49.624Z,328.88
2022-12-23T07:25:22.905Z,334.17
2022-12-23T07:25:57.614Z,320.77
2022-12-23T07:26:30.995Z,329.98
2022-12-23T07:27:04.578Z,326.75
2022-12-23T07:27:38.064Z,325.92
2022-12-23T07:28:11.251Z,334.02
2022-12-23T07:28:48.429Z,327.92
2022-12-23T07:29:21.710Z,333.75
2022-12-23T07:29:54.875Z,333.60
2022-12-23T07:30:29.593Z,325.33
2022-12-23T07:31:05.575Z,320.85
2022-12-23T07:31:41.113Z,331.15
2022-12-23T07:32:14.853Z,319.38